createdAt,value
2022-09-15T00:00:55.330Z,100509.16
2022-09-15T00:03:23.863Z,100497.28
2022-09-15T00:05:53.177Z,100504.28
2022-09-15T00:08:19.852Z,100489.50
2022-09-15T00:10:55.089Z,100522.03
2022-09-15T00:13:22.797Z,100513.81
2022-09-15T00:15:49.696Z,100517.88
2022-09-15T00:18:16.299Z,100481.88
2022-09-15T00:20:44.672Z,100496.72
2022-09-15T00:23:12.957Z,100498.53
2022-09-15T00:25:46.794Z,100510.28
2022-09-15T00:28:14.736Z,100500.88
2022-09-15T00:30:47.220Z,100484.81
2022-09-15T00:33:15.334Z,100466.66
2022-09-15T00:35:44.908Z,100495.00
2022-09-15T00:38:12.751Z,100486.97
2022-09-15T00:40:54.706Z,100450.00
2022-09-15T00:43:50.358Z,100486.47
2022-09-15T00:46:20.515Z,100478.00
2022-09-15T00:49:02.775Z,100488.41
2022-09-15T00:51:50.735Z,100495.28
2022-09-15T00:54:21.819Z,100486.25
2022-09-15T00:56:51.559Z,100478.94
2022-09-15T00:59:22.670Z,100490.69
2022-09-15T01:02:07.158Z,100485.69
2022-09-15T01:04:34.024Z,100471.31
2022-09-15T01:07:05.200Z,100481.69
2022-09-15T01:09:38.661Z,100478.31
2022-09-15T01:12:05.783Z,100484.50
2022-09-15T01:14:32.445Z,100480.03
2022-09-15T01:17:21.144Z,100472.78
2022-09-15T01:20:23.896Z,100480.63
2022-09-15T01:23:27.566Z,100479.81
2022-09-15T01:26:06.321Z,100484.63
2022-09-15T01:28:51.663Z,100480.28
2022-09-15T01:31:36.519Z,100481.03
2022-09-15T01:34:14.041Z,100462.34
2022-09-15T01:36:50.224Z,100476.94
2022-09-15T01:39:21.703Z,100493.97
2022-09-15T01:41:52.329Z,100489.69
2022-09-15T01:44:24.853Z,100470.38
2022-09-15T01:47:01.585Z,100462.72
2022-09-15T01:49:57.296Z,100479.41
2022-09-15T01:52:25.309Z,100484.09
2022-09-15T01:54:57.604Z,100483.06
2022-09-15T01:57:24.484Z,100455.69
2022-09-15T01:59:54.082Z,100483.53
2022-09-15T02:02:24.293Z,100470.53
2022-09-15T02:05:11.423Z,100449.53
2022-09-15T02:07:47.877Z,100425.44
2022-09-15T02:10:22.705Z,100478.81
2022-09-15T02:13:17.238Z,100474.69
2022-09-15T02:15:53.861Z,100475.59
2022-09-15T02:18:34.901Z,100478.47
2022-09-15T02:21:11.994Z,100477.06
2022-09-15T02:23:43.738Z,100475.22
2022-09-15T02:26:16.909Z,100483.91
2022-09-15T02:28:45.788Z,100468.47
2022-09-15T02:31:17.979Z,100486.69
2022-09-15T02:33:53.427Z,100488.53
2022-09-15T02:36:21.535Z,100487.41
2022-09-15T02:38:55.987Z,100493.25
2022-09-15T02:41:23.518Z,100489.19
2022-09-15T02:43:50.618Z,100487.41
2022-09-15T02:46:20.028Z,100509.19
2022-09-15T02:48:47.274Z,100487.56
2022-09-15T02:51:14.416Z,100509.13
2022-09-15T02:53:42.792Z,100499.41
2022-09-15T02:56:09.408Z,100513.47
2022-09-15T02:58:36.533Z,100514.31
2022-09-15T03:01:07.627Z,100520.75
2022-09-15T03:03:34.769Z,100461.63
2022-09-15T03:06:17.004Z,100516.28
2022-09-15T03:09:01.294Z,100467.97
2022-09-15T03:11:29.819Z,100471.59
2022-09-15T03:13:59.030Z,100518.75
2022-09-15T03:16:26.607Z,100525.25
2022-09-15T03:18:59.367Z,100528.00
2022-09-15T03:21:27.637Z,100510.03
2022-09-15T03:23:54.083Z,100527.38
2022-09-15T03:26:20.686Z,100524.91
2022-09-15T03:28:47.314Z,100543.75
2022-09-15T03:31:13.962Z,100491.44
2022-09-15T03:33:40.610Z,100537.94
2022-09-15T03:36:07.632Z,100522.47
2022-09-15T03:38:34.269Z,100508.31
2022-09-15T03:41:04.481Z,100553.06
2022-09-15T03:43:32.316Z,100495.63
2022-09-15T03:45:59.506Z,100547.75
2022-09-15T03:48:27.859Z,100525.69
2022-09-15T03:50:54.509Z,100524.22
2022-09-15T03:53:21.449Z,100530.03
2022-09-15T03:55:49.770Z,100521.50
2022-09-15T03:58:17.463Z,100528.84
2022-09-15T04:00:45.773Z,100517.78
2022-09-15T04:03:13.125Z,100527.72
2022-09-15T04:05:39.906Z,100527.41
2022-09-15T04:08:06.777Z,100543.13
2022-09-15T04:10:33.439Z,100496.66
2022-09-15T04:13:00.055Z,100525.56
2022-09-15T04:15:26.720Z,100531.25
2022-09-15T04:17:53.558Z,100527.59
2022-09-15T04:20:20.241Z,100527.16
2022-09-15T04:22:46.950Z,100522.97
2022-09-15T04:25:13.590Z,100522.63
2022-09-15T04:27:40.225Z,100533.50
2022-09-15T04:30:08.244Z,100515.50
2022-09-15T04:32:36.069Z,100528.16
2022-09-15T04:35:04.172Z,100530.47
2022-09-15T04:37:31.793Z,100532.13
2022-09-15T04:39:58.556Z,100510.00
2022-09-15T04:42:25.402Z,100518.97
2022-09-15T04:44:51.972Z,100542.78
2022-09-15T04:47:19.349Z,100503.00
2022-09-15T04:49:46.120Z,100522.97
2022-09-15T04:52:12.819Z,100534.44
2022-09-15T04:54:39.458Z,100531.38
2022-09-15T04:57:06.148Z,100548.47
2022-09-15T04:59:32.914Z,100518.19
2022-09-15T05:01:59.707Z,100500.34
2022-09-15T05:04:26.303Z,100518.69
2022-09-15T05:06:52.927Z,100496.31
2022-09-15T05:09:19.527Z,100516.72
2022-09-15T05:11:46.134Z,100514.16
2022-09-15T05:14:12.804Z,100515.47
2022-09-15T05:16:40.316Z,100509.00
2022-09-15T05:19:06.940Z,100517.19
2022-09-15T05:21:33.903Z,100512.56
2022-09-15T05:24:00.882Z,100524.41
2022-09-15T05:26:29.288Z,100509.31
2022-09-15T05:28:57.367Z,100513.94
2022-09-15T05:31:31.291Z,100514.47
2022-09-15T05:34:00.815Z,100498.28
2022-09-15T05:36:27.420Z,100485.94
2022-09-15T05:38:56.712Z,100509.78
2022-09-15T05:41:24.448Z,100509.53
2022-09-15T05:43:51.049Z,100505.25
2022-09-15T05:46:19.374Z,100500.00
2022-09-15T05:48:46.835Z,100521.53
2022-09-15T05:51:14.343Z,100517.31
2022-09-15T05:53:41.051Z,100519.13
2022-09-15T05:56:11.942Z,100503.75
2022-09-15T05:58:40.734Z,100494.03
2022-09-15T06:01:13.342Z,100500.22
2022-09-15T06:03:40.791Z,100522.22
2022-09-15T06:06:07.792Z,100454.28
2022-09-15T06:08:55.436Z,100487.38
2022-09-15T06:11:27.616Z,100490.59
2022-09-15T06:13:54.365Z,100520.50
2022-09-15T06:16:23.459Z,100520.13
2022-09-15T06:18:52.567Z,100513.47
2022-09-15T06:21:22.153Z,100514.94
2022-09-15T06:23:57.206Z,100509.97
2022-09-15T06:26:24.695Z,100503.56
2022-09-15T06:28:56.609Z,100495.44
2022-09-15T06:31:24.814Z,100523.53
2022-09-15T06:33:53.088Z,100524.31
2022-09-15T06:36:21.861Z,100502.03
2022-09-15T06:38:48.645Z,100523.38
2022-09-15T06:41:16.204Z,100462.31
2022-09-15T06:43:43.508Z,100525.69
2022-09-15T06:46:12.614Z,100491.75
2022-09-15T06:48:40.730Z,100525.50
2022-09-15T06:51:10.789Z,100508.34
2022-09-15T06:53:38.928Z,100522.41
2022-09-15T06:56:06.683Z,100517.50
2022-09-15T06:58:37.703Z,100504.06
2022-09-15T07:01:09.192Z,100476.75
2022-09-15T07:03:37.567Z,100474.34
2022-09-15T07:06:05.416Z,100480.50
2022-09-15T07:08:32.229Z,100465.16
2022-09-15T07:10:59.125Z,100452.63
2022-09-15T07:13:26.015Z,100472.88
2022-09-15T07:15:54.627Z,100474.00
2022-09-15T07:18:22.210Z,100443.81
2022-09-15T07:20:49.143Z,100462.91
2022-09-15T07:23:16.442Z,100471.53
2022-09-15T07:25:45.224Z,100471.59
2022-09-15T07:28:12.498Z,100479.47
2022-09-15T07:30:39.592Z,100474.53
2022-09-15T07:33:07.558Z,100472.19
2022-09-15T07:35:34.468Z,100490.00
2022-09-15T07:38:01.555Z,100487.53
2022-09-15T07:40:29.095Z,100488.91
2022-09-15T07:42:56.125Z,100445.50
2022-09-15T07:45:22.782Z,100479.25
2022-09-15T07:47:49.427Z,100492.19
2022-09-15T07:50:16.589Z,100493.16
2022-09-15T07:52:43.213Z,100483.66
2022-09-15T07:55:10.151Z,100482.94
2022-09-15T07:57:36.747Z,100459.13
2022-09-15T08:00:04.582Z,100471.63
2022-09-15T08:02:31.288Z,100484.84
2022-09-15T08:04:58.079Z,100481.47
2022-09-15T08:07:24.932Z,100448.75
2022-09-15T08:09:51.574Z,100473.84
2022-09-15T08:12:18.317Z,100450.56
2022-09-15T08:14:44.984Z,100445.06
2022-09-15T08:17:11.841Z,100494.59
2022-09-15T08:19:38.646Z,100481.25
2022-09-15T08:22:05.713Z,100471.91
2022-09-15T08:24:32.404Z,100468.34
2022-09-15T08:26:59.079Z,100486.94
2022-09-15T08:29:25.918Z,100472.41
2022-09-15T08:31:52.581Z,100483.94
2022-09-15T08:34:19.300Z,100483.16
2022-09-15T08:36:45.907Z,100466.94
2022-09-15T08:39:12.995Z,100455.56
2022-09-15T08:41:48.450Z,100465.25
2022-09-15T08:44:40.032Z,100456.69
2022-09-15T08:47:34.150Z,100458.84
2022-09-15T08:50:20.607Z,100441.91
2022-09-15T08:52:53.344Z,100432.69
2022-09-15T08:55:20.211Z,100439.47
2022-09-15T08:57:46.897Z,100447.59
2022-09-15T09:00:17.075Z,100446.97
2022-09-15T09:02:56.312Z,100445.56
2022-09-15T09:05:41.665Z,100438.09
2022-09-15T09:08:46.495Z,100436.91
2022-09-15T09:11:32.240Z,100427.97
2022-09-15T09:14:01.898Z,100438.66
2022-09-15T09:16:43.744Z,100442.94
2022-09-15T09:19:16.413Z,100433.00
2022-09-15T09:22:00.082Z,100416.91
2022-09-15T09:24:43.076Z,100373.63
2022-09-15T09:27:24.922Z,100413.28
2022-09-15T09:30:01.672Z,100405.25
2022-09-15T09:32:41.011Z,100390.97
2022-09-15T09:35:22.848Z,100403.47
2022-09-15T09:37:52.273Z,100398.75
2022-09-15T09:40:19.661Z,100394.41
2022-09-15T09:42:47.005Z,100403.69
2022-09-15T09:45:15.958Z,100373.88
2022-09-15T09:47:43.265Z,100384.22
2022-09-15T09:50:43.661Z,100386.97
2022-09-15T09:53:25.664Z,100376.59
2022-09-15T09:55:55.274Z,100381.03
2022-09-15T09:58:25.888Z,100380.28
2022-09-15T10:00:53.259Z,100372.41
2022-09-15T10:03:29.276Z,100365.38
2022-09-15T10:06:14.559Z,100371.16
2022-09-15T10:08:59.629Z,100283.84
2022-09-15T10:11:44.748Z,100363.06
2022-09-15T10:14:31.032Z,100361.59
2022-09-15T10:17:00.684Z,100354.91
2022-09-15T10:19:29.936Z,100344.81
2022-09-15T10:21:58.197Z,100322.84
2022-09-15T10:24:27.883Z,100343.25
2022-09-15T10:27:16.255Z,100332.75
2022-09-15T10:29:43.323Z,100334.78
2022-09-15T10:32:32.259Z,100331.22
2022-09-15T10:35:09.388Z,100305.56
2022-09-15T10:37:59.906Z,100314.38
2022-09-15T10:40:38.584Z,100320.34
2022-09-15T10:43:20.977Z,100325.28
2022-09-15T10:45:51.139Z,100318.97
2022-09-15T10:48:39.120Z,100291.59
2022-09-15T10:51:17.755Z,100305.09
2022-09-15T10:54:12.234Z,100300.91
2022-09-15T10:56:45.996Z,100299.91
2022-09-15T10:59:34.076Z,100307.75
2022-09-15T11:02:38.203Z,100296.69
2022-09-15T11:05:10.946Z,100296.34
2022-09-15T11:07:56.565Z,100277.94
2022-09-15T11:11:15.265Z,100286.09
2022-09-15T11:14:16.546Z,100278.50
2022-09-15T11:16:44.067Z,100271.84
2022-09-15T11:19:50.671Z,100260.59
2022-09-15T11:22:23.436Z,100248.22
2022-09-15T11:25:03.013Z,100254.28
2022-09-15T11:27:42.583Z,100246.28
2022-09-15T11:30:31.433Z,100246.81
2022-09-15T11:33:13.324Z,100242.50
2022-09-15T11:35:42.791Z,100221.53
2022-09-15T11:38:42.874Z,100223.47
2022-09-15T11:41:26.618Z,100227.88
2022-09-15T11:44:04.128Z,100240.94
2022-09-15T11:47:11.521Z,100232.13
2022-09-15T11:49:44.202Z,100221.47
2022-09-15T11:52:49.358Z,100202.91
2022-09-15T11:55:34.651Z,100223.84
2022-09-15T11:58:21.785Z,100204.72
2022-09-15T12:01:11.746Z,100214.91
2022-09-15T12:03:43.351Z,100208.38
2022-09-15T12:06:13.660Z,100192.38
2022-09-15T12:08:51.440Z,100199.59
2022-09-15T12:11:22.484Z,100194.91
2022-09-15T12:13:50.395Z,100185.44
2022-09-15T12:16:17.497Z,100169.34
2022-09-15T12:18:55.939Z,100188.84
2022-09-15T12:21:34.008Z,100181.00
2022-09-15T12:24:11.133Z,100174.63
2022-09-15T12:26:38.590Z,100174.47
2022-09-15T12:29:27.896Z,100171.00
2022-09-15T12:32:13.416Z,100159.59
2022-09-15T12:34:40.111Z,100155.31
2022-09-15T12:37:09.005Z,100136.88
2022-09-15T12:39:47.143Z,100153.97
2022-09-15T12:42:22.153Z,100143.31
2022-09-15T12:45:18.407Z,100150.97
2022-09-15T12:47:54.765Z,100141.44
2022-09-15T12:50:41.032Z,100126.78
2022-09-15T12:53:29.079Z,100143.34
2022-09-15T12:55:58.867Z,100135.00
2022-09-15T12:58:48.198Z,100125.63
2022-09-15T13:01:26.799Z,100125.03
2022-09-15T13:03:57.897Z,100123.09
2022-09-15T13:06:36.770Z,100123.56
2022-09-15T13:09:06.250Z,100126.72
2022-09-15T13:14:22.732Z,100112.81
2022-09-15T13:17:25.920Z,100114.75
2022-09-15T13:19:59.952Z,100095.84
2022-09-15T13:22:35.500Z,100070.22
2022-09-15T13:25:11.074Z,100109.44
2022-09-15T13:27:41.059Z,100104.81
2022-09-15T13:30:10.699Z,100114.69
2022-09-15T13:32:46.673Z,100112.56
2022-09-15T13:35:38.867Z,100112.84
2022-09-15T13:38:32.495Z,100114.84
2022-09-15T13:41:18.460Z,100122.28
2022-09-15T13:44:10.306Z,100114.25
2022-09-15T13:46:39.650Z,100130.06
2022-09-15T13:49:21.349Z,100110.28
2022-09-15T13:52:00.858Z,100119.72
2022-09-15T13:54:27.501Z,100128.03
2022-09-15T13:56:55.426Z,100111.63
2022-09-15T13:59:30.359Z,100118.91
2022-09-15T14:01:59.775Z,100096.09
2022-09-15T14:04:31.998Z,100117.53
2022-09-15T14:07:01.393Z,100116.59
2022-09-15T14:09:37.515Z,100094.50
2022-09-15T14:12:12.996Z,100112.97
2022-09-15T14:14:47.059Z,100103.75
2022-09-15T14:17:26.819Z,100100.63
2022-09-15T14:19:56.339Z,100078.38
2022-09-15T14:22:26.235Z,100059.66
2022-09-15T14:24:54.143Z,100030.59
2022-09-15T14:27:34.338Z,100081.75
2022-09-15T14:30:16.833Z,100074.31
2022-09-15T14:32:47.284Z,100059.56
2022-09-15T14:35:19.849Z,100071.84
2022-09-15T14:37:55.333Z,100075.34
2022-09-15T14:40:35.417Z,100038.50
2022-09-15T14:43:03.150Z,100025.81
2022-09-15T14:48:26.907Z,100092.53
2022-09-15T14:51:15.831Z,100093.97
2022-09-15T14:53:44.891Z,100087.19
2022-09-15T14:56:22.338Z,100090.81
2022-09-15T14:58:54.434Z,100085.72
2022-09-15T15:01:35.634Z,100057.63
2022-09-15T15:04:26.399Z,100073.09
2022-09-15T15:07:26.086Z,100064.13
2022-09-15T15:10:11.568Z,100057.34
2022-09-15T15:12:45.636Z,100056.19
2022-09-15T15:15:14.805Z,100034.34
2022-09-15T15:17:44.516Z,100052.19
2022-09-15T15:20:11.043Z,100066.75
2022-09-15T15:22:38.995Z,100058.66
2022-09-15T15:25:20.795Z,100068.16
2022-09-15T15:27:54.826Z,100057.47
2022-09-15T15:30:31.983Z,100067.81
2022-09-15T15:33:06.757Z,100042.19
2022-09-15T15:35:35.844Z,100042.53
2022-09-15T15:38:11.541Z,100055.06
2022-09-15T15:40:40.623Z,100036.28
2022-09-15T15:43:19.187Z,100059.19
2022-09-15T15:45:58.517Z,100062.03
2022-09-15T15:48:26.218Z,100058.66
2022-09-15T15:50:52.906Z,100039.81
2022-09-15T15:53:19.528Z,100045.41
2022-09-15T15:55:46.605Z,100048.78
2022-09-15T15:58:14.540Z,100047.22
2022-09-15T16:00:45.818Z,100052.97
2022-09-15T16:03:13.714Z,100021.69
2022-09-15T16:05:42.160Z,100057.13
2022-09-15T16:08:26.592Z,100054.50
2022-09-15T16:10:54.540Z,100059.53
2022-09-15T16:13:22.672Z,100067.63
2022-09-15T16:15:49.870Z,100067.06
2022-09-15T16:18:16.499Z,100055.38
2022-09-15T16:20:43.410Z,100074.31
2022-09-15T16:23:14.999Z,100062.28
2022-09-15T16:25:59.436Z,100078.13
2022-09-15T16:28:26.375Z,100085.75
2022-09-15T16:30:53.077Z,100052.72
2022-09-15T16:33:19.934Z,100089.16
2022-09-15T16:35:51.428Z,100098.56
2022-09-15T16:38:20.247Z,100090.31
2022-09-15T16:40:48.108Z,100086.72
2022-09-15T16:43:17.191Z,100069.63
2022-09-15T16:45:44.150Z,100088.09
2022-09-15T16:48:11.498Z,100084.91
2022-09-15T16:50:40.132Z,100060.84
2022-09-15T16:53:15.039Z,100085.00
2022-09-15T16:55:46.077Z,100089.63
2022-09-15T16:58:13.989Z,100061.31
2022-09-15T17:00:43.652Z,100063.78
2022-09-15T17:03:15.272Z,100088.47
2022-09-15T17:05:48.514Z,100082.00
2022-09-15T17:08:16.894Z,100039.84
2022-09-15T17:10:43.840Z,100095.19
2022-09-15T17:13:16.402Z,100087.81
2022-09-15T17:15:45.798Z,100088.13
2022-09-15T17:18:15.499Z,100085.72
2022-09-15T17:20:44.141Z,100088.41
2022-09-15T17:23:21.156Z,100104.44
2022-09-15T17:25:53.714Z,100112.41
2022-09-15T17:28:22.670Z,100084.84
2022-09-15T17:30:51.549Z,100111.41
2022-09-15T17:33:19.929Z,100077.28
2022-09-15T17:35:47.837Z,100099.38
2022-09-15T17:38:16.796Z,100118.41
2022-09-15T17:40:43.389Z,100125.63
2022-09-15T17:43:16.700Z,100126.84
2022-09-15T17:45:43.852Z,100112.81
2022-09-15T17:48:10.850Z,100118.66
2022-09-15T17:50:38.812Z,100125.31
2022-09-15T17:53:26.898Z,100132.97
2022-09-15T17:55:55.384Z,100135.16
2022-09-15T17:58:23.740Z,100132.63
2022-09-15T18:00:50.649Z,100137.84
2022-09-15T18:03:27.869Z,100147.28
2022-09-15T18:06:00.075Z,100132.97
2022-09-15T18:08:27.830Z,100135.41
2022-09-15T18:10:54.911Z,100120.19
2022-09-15T18:13:24.272Z,100133.06
2022-09-15T18:15:51.161Z,100140.16
2022-09-15T18:18:20.149Z,100111.72
2022-09-15T18:20:47.871Z,100052.69
2022-09-15T18:23:17.574Z,100128.00
2022-09-15T18:25:44.939Z,100137.00
2022-09-15T18:28:11.580Z,100135.56
2022-09-15T18:30:40.770Z,100127.78
2022-09-15T18:33:12.901Z,100096.88
2022-09-15T18:35:41.283Z,100105.91
2022-09-15T18:38:08.410Z,100130.28
2022-09-15T18:40:35.069Z,100109.84
2022-09-15T18:43:01.759Z,100127.28
2022-09-15T18:45:28.429Z,100119.72
2022-09-15T18:47:55.359Z,100131.13
2022-09-15T18:50:24.088Z,100128.06
2022-09-15T18:52:50.724Z,100132.34
2022-09-15T18:55:20.280Z,100120.75
2022-09-15T18:57:47.519Z,100118.97
2022-09-15T19:00:20.109Z,100114.09
2022-09-15T19:02:47.222Z,100089.22
2022-09-15T19:05:15.755Z,100117.53
2022-09-15T19:07:44.023Z,100119.59
2022-09-15T19:10:12.355Z,100130.72
2022-09-15T19:12:39.728Z,100127.53
2022-09-15T19:15:10.889Z,100119.47
2022-09-15T19:17:39.452Z,100107.69
2022-09-15T19:20:08.478Z,100102.41
2022-09-15T19:22:35.978Z,100123.91
2022-09-15T19:25:03.403Z,100065.34
2022-09-15T19:27:30.258Z,100119.75
2022-09-15T19:29:57.012Z,100116.81
2022-09-15T19:32:24.295Z,100108.53
2022-09-15T19:34:51.272Z,100125.13
2022-09-15T19:37:21.866Z,100127.56
2022-09-15T19:39:49.043Z,100123.66
2022-09-15T19:44:48.031Z,100124.59
2022-09-15T19:47:14.692Z,100138.41
2022-09-15T19:49:41.689Z,100149.97
2022-09-15T19:52:08.529Z,100131.94
2022-09-15T19:54:36.177Z,100090.81
2022-09-15T19:57:03.231Z,100134.16
2022-09-15T19:59:31.611Z,100138.66
2022-09-15T20:01:59.749Z,100141.31
2022-09-15T20:04:27.021Z,100129.75
2022-09-15T20:06:53.706Z,100134.22
2022-09-15T20:09:20.380Z,100107.88
2022-09-15T20:11:47.068Z,100144.59
2022-09-15T20:14:13.909Z,100114.25
2022-09-15T20:16:41.115Z,100105.34
2022-09-15T20:19:07.979Z,100135.84
2022-09-15T20:21:52.005Z,100123.16
2022-09-15T20:24:20.032Z,100094.66
2022-09-15T20:26:46.695Z,100121.94
2022-09-15T20:29:13.574Z,100096.47
2022-09-15T20:31:40.854Z,100097.19
2022-09-15T20:34:07.554Z,100139.72
2022-09-15T20:36:36.616Z,100120.31
2022-09-15T20:39:05.854Z,100091.22
2022-09-15T20:41:33.203Z,100122.81
2022-09-15T20:44:00.354Z,100124.50
2022-09-15T20:46:29.378Z,100114.72
2022-09-15T20:48:56.121Z,100118.50
2022-09-15T20:51:25.699Z,100116.03
2022-09-15T20:53:54.468Z,100114.94
2022-09-15T20:56:25.382Z,100078.16
2022-09-15T20:58:54.272Z,100113.00
2022-09-15T21:01:29.722Z,100119.69
2022-09-15T21:03:56.599Z,100126.97
2022-09-15T21:06:26.485Z,100112.44
2022-09-15T21:08:54.884Z,100130.09
2022-09-15T21:11:21.801Z,100113.13
2022-09-15T21:13:49.358Z,100108.97
2022-09-15T21:16:21.955Z,100065.28
2022-09-15T21:18:50.281Z,100094.69
2022-09-15T21:21:22.188Z,100127.28
2022-09-15T21:23:51.877Z,100124.38
2022-09-15T21:26:24.286Z,100090.25
2022-09-15T21:28:51.887Z,100125.31
2022-09-15T21:31:20.970Z,100124.19
2022-09-15T21:33:48.473Z,100130.41
2022-09-15T21:38:44.725Z,100109.06
2022-09-15T21:41:14.341Z,100127.63
2022-09-15T21:43:42.303Z,100115.47
2022-09-15T21:46:14.700Z,100121.28
2022-09-15T21:48:42.312Z,100113.81
2022-09-15T21:51:11.330Z,100115.38
2022-09-15T21:53:38.226Z,100115.84
2022-09-15T21:56:06.519Z,100108.63
2022-09-15T21:58:39.008Z,100108.63
2022-09-15T22:01:10.454Z,100095.34
2022-09-15T22:03:37.674Z,100089.47
2022-09-15T22:06:04.303Z,100080.41
2022-09-15T22:08:31.110Z,100076.91
2022-09-15T22:11:00.758Z,100077.88
2022-09-15T22:13:28.261Z,100073.94
2022-09-15T22:16:11.772Z,100081.94
2022-09-15T22:18:39.950Z,100057.78
2022-09-15T22:21:11.440Z,100074.31
2022-09-15T22:23:39.086Z,100056.16
2022-09-15T22:26:12.729Z,100068.25
2022-09-15T22:28:39.951Z,100079.78
2022-09-15T22:31:08.767Z,100029.97
2022-09-15T22:33:35.797Z,100034.16
2022-09-15T22:36:03.007Z,100085.69
2022-09-15T22:38:30.413Z,100048.91
2022-09-15T22:41:03.996Z,100083.78
2022-09-15T22:43:30.634Z,100090.31
2022-09-15T22:45:57.373Z,100064.66
2022-09-15T22:48:24.355Z,100075.97
2022-09-15T22:50:50.985Z,100076.63
2022-09-15T22:53:17.630Z,100093.75
2022-09-15T22:55:44.356Z,100087.13
2022-09-15T22:58:11.007Z,100072.66
2022-09-15T23:00:38.677Z,100070.09
2022-09-15T23:03:06.661Z,100069.56
2022-09-15T23:05:34.182Z,100053.88
2022-09-15T23:08:01.013Z,100083.91
2022-09-15T23:10:28.348Z,100075.03
2022-09-15T23:12:54.998Z,100078.22
2022-09-15T23:15:21.577Z,100088.25
2022-09-15T23:17:48.206Z,100095.13
2022-09-15T23:20:14.995Z,100026.16
2022-09-15T23:22:41.657Z,100057.50
2022-09-15T23:25:08.763Z,100087.72
2022-09-15T23:27:35.341Z,100076.50
2022-09-15T23:30:01.929Z,100079.63
2022-09-15T23:32:28.589Z,100086.56
2022-09-15T23:34:55.212Z,100059.06
2022-09-15T23:37:21.875Z,100092.44
2022-09-15T23:39:48.519Z,100065.00
2022-09-15T23:42:18.803Z,100089.00
2022-09-15T23:44:45.903Z,100100.56
2022-09-15T23:47:12.501Z,100047.84
2022-09-15T23:49:39.056Z,100099.50
2022-09-15T23:52:05.706Z,100102.06
2022-09-15T23:54:32.392Z,100100.16
2022-09-15T23:56:59.002Z,100110.53
2022-09-15T23:59:25.646Z,100112.56
